createdAt,value
2023-04-18T00:03:10.127Z,101830.63
2023-04-18T00:08:12.308Z,101844.84
2023-04-18T00:13:14.348Z,101831.56
2023-04-18T00:18:17.696Z,101830.69
2023-04-18T00:23:22.668Z,101830.63
2023-04-18T00:28:24.990Z,101835.13
2023-04-18T00:33:27.021Z,101827.16
2023-04-18T00:38:29.331Z,101827.97
2023-04-18T00:43:32.837Z,101819.91
2023-04-18T00:48:34.826Z,101817.34
2023-04-18T00:53:37.186Z,101819.13
2023-04-18T00:58:41.168Z,101820.88
2023-04-18T01:03:43.667Z,101819.94
2023-04-18T01:08:46.278Z,101819.13
2023-04-18T01:14:04.994Z,101812.13
2023-04-18T01:19:07.141Z,101811.16
2023-04-18T01:24:15.071Z,101811.19
2023-04-18T01:29:17.507Z,101802.41
2023-04-18T01:34:19.712Z,101802.28
2023-04-18T01:39:21.784Z,101797.06
2023-04-18T01:44:23.860Z,101789.88
2023-04-18T01:49:25.948Z,101790.75
2023-04-18T01:54:28.114Z,101782.78
2023-04-18T01:59:30.234Z,101788.94
2023-04-18T02:04:32.683Z,101780.09
2023-04-18T02:09:34.560Z,101781.94
2023-04-18T02:14:36.742Z,101772.31
2023-04-18T02:19:38.586Z,101781.13
2023-04-18T02:24:40.781Z,101779.31
2023-04-18T02:29:42.690Z,101767.81
2023-04-18T02:34:44.787Z,101766.00
2023-04-18T02:39:46.708Z,101773.16
2023-04-18T02:44:48.926Z,101783.81
2023-04-18T02:49:51.409Z,101782.91
2023-04-18T02:54:53.403Z,101780.28
2023-04-18T02:59:55.489Z,101778.47
2023-04-18T03:04:57.478Z,101778.41
2023-04-18T03:10:00.308Z,101770.50
2023-04-18T03:15:02.528Z,101781.16
2023-04-18T03:20:04.879Z,101779.31
2023-04-18T03:25:07.905Z,101777.63
2023-04-18T03:30:10.847Z,101781.16
2023-04-18T03:35:12.940Z,101779.41
2023-04-18T03:40:14.878Z,101777.59
2023-04-18T03:45:17.005Z,101775.84
2023-04-18T03:50:19.026Z,101769.66
2023-04-18T03:55:21.524Z,101770.63
2023-04-18T04:00:23.702Z,101774.97
2023-04-18T04:05:29.025Z,101775.84
2023-04-18T04:10:31.594Z,101775.81
2023-04-18T04:15:33.701Z,101775.84
2023-04-18T04:20:35.723Z,101786.47
2023-04-18T04:25:38.844Z,101790.97
2023-04-18T04:30:41.953Z,101780.28
2023-04-18T04:35:43.882Z,101783.94
2023-04-18T04:40:46.614Z,101787.41
2023-04-18T04:45:51.783Z,101795.41
2023-04-18T04:50:58.095Z,101794.50
2023-04-18T04:56:00.002Z,101801.56
2023-04-18T05:01:02.132Z,101804.25
2023-04-18T05:06:04.512Z,101800.78
2023-04-18T05:11:06.311Z,101806.97
2023-04-18T05:16:08.466Z,101804.31
2023-04-18T05:21:10.529Z,101805.22
2023-04-18T05:26:12.743Z,101812.22
2023-04-18T05:31:15.081Z,101800.91
2023-04-18T05:36:17.060Z,101808.81
2023-04-18T05:41:19.073Z,101812.28
2023-04-18T05:46:21.338Z,101818.53
2023-04-18T05:51:23.438Z,101827.28
2023-04-18T05:56:25.626Z,101832.56
2023-04-18T06:01:27.875Z,101835.38
2023-04-18T06:06:29.927Z,101842.53
2023-04-18T06:11:33.977Z,101839.88
2023-04-18T06:16:37.833Z,101853.03
2023-04-18T06:21:42.377Z,101852.22
2023-04-18T06:26:44.357Z,101857.59
2023-04-18T06:31:48.821Z,101860.31
2023-04-18T06:36:51.809Z,101859.38
2023-04-18T06:41:54.026Z,101871.78
2023-04-18T06:46:56.113Z,101871.75
2023-04-18T06:51:58.260Z,101879.66
2023-04-18T06:57:00.533Z,101876.25
2023-04-18T07:02:02.870Z,101881.50
2023-04-18T07:07:05.606Z,101884.25
2023-04-18T07:12:07.828Z,101884.22
2023-04-18T07:17:10.002Z,101878.34
2023-04-18T07:22:12.071Z,101886.38
2023-04-18T07:27:15.127Z,101886.50
2023-04-18T07:32:17.168Z,101882.03
2023-04-18T07:37:19.625Z,101879.00
2023-04-18T07:42:21.828Z,101875.81
2023-04-18T07:47:24.124Z,101889.19
2023-04-18T07:52:26.471Z,101887.56
2023-04-18T07:57:28.483Z,101891.03
2023-04-18T08:02:30.693Z,101890.53
2023-04-18T08:07:32.892Z,101894.50
2023-04-18T08:12:36.613Z,101890.97
2023-04-18T08:17:39.389Z,101890.84
2023-04-18T08:22:57.735Z,101893.97
2023-04-18T08:28:04.554Z,101898.81
2023-04-18T08:33:06.872Z,101893.53
2023-04-18T08:38:08.908Z,101888.50
2023-04-18T08:43:14.460Z,101888.31
2023-04-18T08:48:17.986Z,101877.09
2023-04-18T08:53:20.115Z,101886.22
2023-04-18T08:58:23.347Z,101885.16
2023-04-18T09:03:42.961Z,101878.25
2023-04-18T09:08:57.959Z,101880.38
2023-04-18T09:14:00.366Z,101869.38
2023-04-18T09:19:29.549Z,101880.72
2023-04-18T09:24:32.579Z,101877.25
2023-04-18T09:29:57.279Z,101872.31
2023-04-18T09:35:04.388Z,101868.22
2023-04-18T09:40:18.521Z,101869.66
2023-04-18T09:45:21.286Z,101872.31
2023-04-18T09:50:23.561Z,101872.47
2023-04-18T09:55:25.997Z,101868.31
2023-04-18T10:00:30.572Z,101873.97
2023-04-18T10:05:35.191Z,101878.13
2023-04-18T10:10:39.053Z,101881.47
2023-04-18T10:15:44.083Z,101881.34
2023-04-18T10:20:47.411Z,101884.13
2023-04-18T10:25:50.323Z,101876.16
2023-04-18T10:30:55.316Z,101892.97
2023-04-18T10:36:20.272Z,101894.88
2023-04-18T10:41:29.756Z,101892.19
2023-04-18T10:46:32.974Z,101891.22
2023-04-18T10:51:35.318Z,101875.34
2023-04-18T10:56:37.730Z,101878.88
2023-04-18T11:01:46.924Z,101878.97
2023-04-18T11:06:57.820Z,101881.47
2023-04-18T11:12:12.360Z,101874.53
2023-04-18T11:17:19.023Z,101865.59
2023-04-18T11:22:21.401Z,101866.47
2023-04-18T11:27:26.345Z,101859.22
2023-04-18T11:32:28.488Z,101853.09
2023-04-18T11:37:31.314Z,101862.88
2023-04-18T11:42:34.697Z,101852.34
2023-04-18T11:47:37.050Z,101861.22
2023-04-18T11:52:41.874Z,101856.72
2023-04-18T11:57:51.198Z,101853.09
2023-04-18T12:02:54.391Z,101856.66
2023-04-18T12:07:57.114Z,101855.03
2023-04-18T12:13:00.540Z,101855.81
2023-04-18T12:18:05.717Z,101854.19
2023-04-18T12:23:08.999Z,101859.50
2023-04-18T12:28:16.382Z,101855.09
2023-04-18T12:33:18.780Z,101850.66
2023-04-18T12:38:22.646Z,101849.72
2023-04-18T12:43:24.510Z,101853.25
2023-04-18T12:48:26.733Z,101847.88
2023-04-18T12:53:28.963Z,101834.63
2023-04-18T12:58:31.250Z,101842.69
2023-04-18T13:03:34.582Z,101847.06
2023-04-18T13:08:37.887Z,101852.44
2023-04-18T13:13:39.906Z,101847.06
2023-04-18T13:18:42.046Z,101842.63
2023-04-18T13:23:44.517Z,101839.88
2023-04-18T13:28:46.982Z,101847.88
2023-04-18T13:33:49.145Z,101844.31
2023-04-18T13:38:52.141Z,101839.88
2023-04-18T13:43:54.112Z,101840.78
2023-04-18T13:48:56.110Z,101837.28
2023-04-18T13:54:00.502Z,101834.63
2023-04-18T13:59:02.855Z,101825.63
2023-04-18T14:04:05.290Z,101825.63
2023-04-18T14:09:08.273Z,101820.31
2023-04-18T14:14:10.222Z,101810.81
2023-04-18T14:19:12.535Z,101818.75
2023-04-18T14:24:14.893Z,101812.66
2023-04-18T14:29:17.104Z,101816.19
2023-04-18T14:34:19.062Z,101803.06
2023-04-18T14:39:21.999Z,101813.72
2023-04-18T14:44:24.064Z,101809.28
2023-04-18T14:49:26.118Z,101809.34
2023-04-18T14:54:28.220Z,101801.31
2023-04-18T14:59:30.507Z,101797.75
2023-04-18T15:04:32.774Z,101795.06
2023-04-18T15:09:38.092Z,101794.22
2023-04-18T15:14:40.315Z,101789.75
2023-04-18T15:19:42.337Z,101792.31
2023-04-18T15:24:44.441Z,101790.63
2023-04-18T15:29:47.374Z,101790.59
2023-04-18T15:34:49.567Z,101781.78
2023-04-18T15:39:51.838Z,101788.94
2023-04-18T15:44:54.037Z,101787.19
2023-04-18T15:49:56.294Z,101787.97
2023-04-18T15:54:58.242Z,101780.94
2023-04-18T16:00:00.606Z,101780.03
2023-04-18T16:05:03.006Z,101781.84
2023-04-18T16:10:06.850Z,101783.72
2023-04-18T16:15:10.050Z,101784.50
2023-04-18T16:20:12.066Z,101786.28
2023-04-18T16:25:14.999Z,101784.53
2023-04-18T16:30:17.072Z,101786.38
2023-04-18T16:35:19.157Z,101776.56
2023-04-18T16:40:21.411Z,101779.28
2023-04-18T16:45:23.847Z,101784.69
2023-04-18T16:50:26.592Z,101791.00
2023-04-18T16:55:28.640Z,101783.13
2023-04-18T17:00:30.686Z,101773.31
2023-04-18T17:05:33.810Z,101775.03
2023-04-18T17:10:36.098Z,101778.72
2023-04-18T17:15:38.740Z,101773.25
2023-04-18T17:20:40.746Z,101769.72
2023-04-18T17:25:42.693Z,101783.06
2023-04-18T17:30:44.833Z,101773.31
2023-04-18T17:35:47.433Z,101778.72
2023-04-18T17:40:56.218Z,101781.38
2023-04-18T17:46:00.130Z,101783.19
2023-04-18T17:51:02.463Z,101786.69
2023-04-18T17:56:12.076Z,101782.31
2023-04-18T18:01:19.187Z,101781.41
2023-04-18T18:06:21.730Z,101775.25
2023-04-18T18:11:24.390Z,101798.25
2023-04-18T18:16:26.619Z,101787.31
2023-04-18T18:21:29.105Z,101794.47
2023-04-18T18:26:31.315Z,101793.59
2023-04-18T18:31:33.473Z,101798.16
2023-04-18T18:36:36.047Z,101800.75
2023-04-18T18:41:38.425Z,101812.22
2023-04-18T18:46:42.085Z,101807.72
2023-04-18T18:51:45.190Z,101811.34
2023-04-18T18:56:47.249Z,101820.16
2023-04-18T19:01:49.523Z,101825.47
2023-04-18T19:06:51.692Z,101834.34
2023-04-18T19:11:54.882Z,101829.97
2023-04-18T19:16:58.514Z,101832.63
2023-04-18T19:22:01.544Z,101842.31
2023-04-18T19:27:03.824Z,101843.16
2023-04-18T19:32:06.815Z,101841.53
2023-04-18T19:37:08.769Z,101847.66
2023-04-18T19:42:10.894Z,101842.31
2023-04-18T19:47:13.142Z,101848.56
2023-04-18T19:52:15.162Z,101857.41
2023-04-18T19:57:17.312Z,101854.75
2023-04-18T20:02:19.558Z,101860.97
2023-04-18T20:07:22.378Z,101860.88
2023-04-18T20:12:25.360Z,101867.06
2023-04-18T20:17:27.995Z,101863.56
2023-04-18T20:22:30.129Z,101866.28
2023-04-18T20:27:32.143Z,101858.75
2023-04-18T20:32:34.968Z,101860.63
2023-04-18T20:37:37.129Z,101857.16
2023-04-18T20:42:39.296Z,101861.69
2023-04-18T20:47:44.489Z,101856.16
2023-04-18T20:52:47.749Z,101864.16
2023-04-18T20:57:49.964Z,101864.03
2023-04-18T21:02:52.290Z,101864.00
2023-04-18T21:07:54.603Z,101868.19
2023-04-18T21:12:56.668Z,101867.53
2023-04-18T21:17:58.809Z,101875.63
2023-04-18T21:23:00.928Z,101878.16
2023-04-18T21:28:02.895Z,101881.75
2023-04-18T21:33:04.978Z,101883.63
2023-04-18T21:38:07.078Z,101891.66
2023-04-18T21:43:09.168Z,101890.63
2023-04-18T21:48:11.926Z,101890.81
2023-04-18T21:53:13.863Z,101889.97
2023-04-18T21:58:15.732Z,101886.44
2023-04-18T22:03:17.956Z,101889.13
2023-04-18T22:08:20.608Z,101889.03
2023-04-18T22:13:23.011Z,101889.91
2023-04-18T22:18:25.191Z,101891.81
2023-04-18T22:23:27.973Z,101885.66
2023-04-18T22:28:29.977Z,101889.19
2023-04-18T22:33:32.077Z,101883.00
2023-04-18T22:38:34.150Z,101879.31
2023-04-18T22:43:36.120Z,101880.34
2023-04-18T22:48:38.937Z,101888.44
2023-04-18T22:53:40.990Z,101888.44
2023-04-18T22:58:43.186Z,101895.47
2023-04-18T23:03:45.494Z,101897.25
2023-04-18T23:08:47.638Z,101895.47
2023-04-18T23:13:49.552Z,101907.88
2023-04-18T23:18:51.555Z,101897.31
2023-04-18T23:23:53.645Z,101894.56
2023-04-18T23:28:55.574Z,101900.06
2023-04-18T23:33:57.630Z,101899.16
2023-04-18T23:38:59.768Z,101897.34
2023-04-18T23:44:01.642Z,101898.28
2023-04-18T23:49:03.825Z,101892.97
2023-04-18T23:54:06.069Z,101894.75
2023-04-18T23:59:08.139Z,101893.81
